Time;durP1;ratioP1;P1;durP2;ratioP2;P2;SDS_P1;SDS_P2;PMS_P1;PMS_P2;Temp;Humidity;BMP_temperature;BMP_pressure;BME280_temperature;BME280_humidity;BME280_pressure;Samples;Min_cycle;Max_cycle;Signal;HPM_P1;HPM_P2
2022/02/04 00:07:14;;;;;;;16.00;11.10;;;;;;;1.27;83.01;99143.94;438711;1252;141245;-62
2022/02/04 00:27:39;;;;;;;18.50;11.10;;;;;;;1.27;83.79;99128.92;440113;1253;141749;-60
2022/02/04 00:37:55;;;;;;;15.70;9.70;;;;;;;1.31;84.12;99126.02;438072;1253;194992;-60
2022/02/04 00:48:09;;;;;;;16.40;9.90;;;;;;;1.35;84.32;99128.16;437083;1253;142171;-63
2022/02/04 01:29:16;;;;;;;16.90;10.80;;;;;;;1.44;85.61;99113.02;446635;1253;141990;-70
2022/02/04 01:39:19;;;;;;;16.50;11.80;;;;;;;1.47;85.76;99097.90;440518;1253;141044;-59
2022/02/04 01:49:24;;;;;;;14.80;10.80;;;;;;;1.54;86.16;99087.48;441918;1253;140797;-59
2022/02/04 01:59:27;;;;;;;15.30;11.30;;;;;;;1.59;86.22;99079.39;439197;1252;141733;-61
2022/02/04 02:09:38;;;;;;;17.10;10.30;;;;;;;1.59;86.44;99072.48;443997;1252;140986;-61
2022/02/04 02:51:25;;;;;;;12.30;8.90;;;;;;;1.74;87.18;99052.60;442296;1252;141346;-59
2022/02/04 03:01:27;;;;;;;11.20;10.00;;;;;;;1.74;87.20;99042.09;443304;1252;140851;-59
2022/02/04 03:11:30;;;;;;;14.00;11.30;;;;;;;1.78;87.52;99037.27;441693;1253;141629;-59
2022/02/04 03:21:37;;;;;;;13.30;10.10;;;;;;;1.82;87.67;99036.26;444758;1252;145247;-61
2022/02/04 03:31:44;;;;;;;14.60;12.20;;;;;;;1.86;87.62;99035.63;441723;1253;142900;-59
2022/02/04 03:41:48;;;;;;;14.80;12.00;;;;;;;1.86;87.74;99031.48;438425;1253;145899;-61
2022/02/04 03:51:51;;;;;;;12.80;11.50;;;;;;;1.88;87.98;99024.50;441747;1252;145164;-59
2022/02/04 04:01:54;;;;;;;17.30;13.20;;;;;;;1.89;88.16;99027.73;441541;1251;140408;-59
2022/02/04 04:11:57;;;;;;;13.30;9.90;;;;;;;1.92;88.25;99021.74;445590;1251;141059;-59
2022/02/04 04:22:00;;;;;;;15.40;9.90;;;;;;;1.94;88.15;99019.44;443716;1251;142726;-60
2022/02/04 04:32:06;;;;;;;13.20;8.60;;;;;;;1.92;88.13;99022.42;443012;1252;141239;-60
2022/02/04 04:42:14;;;;;;;13.40;8.90;;;;;;;1.93;88.19;99023.27;439249;1252;141208;-60
2022/02/04 05:33:43;;;;;;;12.90;7.90;;;;;;;1.89;88.23;98999.77;438467;1254;140988;-60
2022/02/04 05:43:47;;;;;;;11.50;8.00;;;;;;;1.89;88.20;98994.25;449008;1252;140783;-61
2022/02/04 05:53:57;;;;;;;13.10;9.90;;;;;;;1.89;88.19;98990.27;438376;1252;141549;-59
2022/02/04 06:04:13;;;;;;;14.00;10.00;;;;;;;1.87;88.38;98993.95;439497;1252;140791;-60
2022/02/04 06:14:32;;;;;;;14.30;9.90;;;;;;;1.85;88.37;98985.77;441080;1252;141170;-60
2022/02/04 06:24:35;;;;;;;19.90;11.10;;;;;;;1.87;88.40;98994.99;436869;1253;141310;-60
2022/02/04 06:34:38;;;;;;;13.00;9.10;;;;;;;1.87;88.17;98994.66;449716;1252;141541;-61
2022/02/04 06:44:41;;;;;;;17.10;9.40;;;;;;;1.91;88.16;99010.39;438970;1252;141709;-59
2022/02/04 06:54:45;;;;;;;17.20;12.10;;;;;;;1.98;87.97;99008.59;442542;1252;141450;-59
2022/02/04 07:04:48;;;;;;;11.10;8.00;;;;;;;2.04;87.92;99002.12;439443;1253;142013;-59
2022/02/04 07:15:21;;;;;;;13.50;10.20;;;;;;;2.15;87.74;99002.60;436786;1255;140949;-60
2022/02/04 07:25:24;;;;;;;18.10;11.90;;;;;;;2.21;87.26;99012.89;439035;1252;142376;-59
2022/02/04 07:38:34;;;;;;;22.90;12.30;;;;;;;2.22;87.43;99011.30;439667;1253;140435;-63
2022/02/04 07:45:59;;;;;;;13.30;8.90;;;;;;;2.26;87.20;99007.33;439905;1252;141516;-60
2022/02/04 07:56:03;;;;;;;15.70;10.70;;;;;;;2.33;86.97;99012.41;438572;1255;144563;-60
2022/02/04 08:06:10;;;;;;;12.70;9.90;;;;;;;2.42;86.80;99011.02;440240;1253;140359;-59
2022/02/04 08:16:48;;;;;;;;;;;;;;;2.58;86.82;99011.41;438191;1253;141666;-60
2022/02/04 08:27:09;;;;;;;15.90;9.40;;;;;;;2.60;86.54;99009.80;437463;1253;131757;-61
2022/02/04 08:48:05;;;;;;;18.10;13.00;;;;;;;2.59;86.92;98991.36;438529;1252;142092;-63
2022/02/04 08:58:23;;;;;;;19.10;12.10;;;;;;;2.82;86.99;98981.77;438462;1252;141537;-63
2022/02/04 09:08:30;;;;;;;19.50;14.20;;;;;;;2.99;87.20;98978.64;441321;1252;141458;-63
2022/02/04 09:18:37;;;;;;;16.30;13.00;;;;;;;3.24;87.04;98980.17;438150;1253;141771;-61
2022/02/04 09:28:40;;;;;;;20.00;11.50;;;;;;;3.34;86.59;98978.70;444032;1252;141184;-67
2022/02/04 09:38:43;;;;;;;14.00;11.60;;;;;;;3.40;86.56;98982.08;444344;1251;140885;-62
2022/02/04 09:48:51;;;;;;;17.10;12.50;;;;;;;3.49;86.35;98982.17;438211;1252;207689;-64
2022/02/04 10:09:41;;;;;;;18.20;11.90;;;;;;;4.08;85.92;98972.27;438732;1253;140978;-60
2022/02/04 10:19:49;;;;;;;14.20;11.30;;;;;;;3.98;85.19;98974.62;439831;1253;141733;-60
2022/02/04 10:29:55;;;;;;;15.70;10.00;;;;;;;3.78;85.25;98971.58;447420;1254;140899;-59
2022/02/04 10:40:06;;;;;;;21.00;14.40;;;;;;;3.65;85.03;98974.57;441568;1253;141292;-58
2022/02/04 10:50:46;;;;;;;19.50;14.00;;;;;;;3.63;85.37;98975.51;444533;1252;140585;-58
2022/02/04 11:01:08;;;;;;;14.90;11.10;;;;;;;3.56;85.52;98968.21;450154;1252;141513;-59
2022/02/04 11:11:38;;;;;;;18.40;10.80;;;;;;;3.78;85.90;98944.40;452993;1252;141042;-60
2022/02/04 11:30:52;;;;;;;18.40;11.40;;;;;;;4.14;85.50;98936.30;447439;1252;141357;-62
2022/02/04 11:53:43;;;;;;;19.50;15.00;;;;;;;4.08;84.95;98925.30;439368;1254;141427;-58
2022/02/04 12:03:46;;;;;;;16.40;12.00;;;;;;;3.94;85.22;98921.98;441441;1252;141021;-66
2022/02/04 12:14:10;;;;;;;29.80;21.10;;;;;;;3.94;85.57;98916.27;438403;1252;141026;-60
2022/02/04 12:24:41;;;;;;;22.90;17.20;;;;;;;3.97;85.54;98913.01;449492;1252;141009;-61
2022/02/04 12:34:47;;;;;;;24.40;16.70;;;;;;;4.21;85.76;98902.00;450906;1251;305249;-61
2022/02/04 12:44:52;;;;;;;26.70;17.10;;;;;;;4.42;85.50;98895.10;450920;1253;141514;-62
2022/02/04 12:55:05;;;;;;;28.70;15.70;;;;;;;4.52;85.37;98891.14;441713;1253;140796;-62
2022/02/04 13:15:33;;;;;;;22.80;15.60;;;;;;;4.89;85.50;98880.45;451087;1252;141459;-60
2022/02/04 13:25:41;;;;;;;23.40;17.20;;;;;;;5.12;84.96;98868.98;443637;1252;144858;-59
2022/02/04 13:35:53;;;;;;;24.10;16.80;;;;;;;5.27;84.91;98862.67;451809;1252;141665;-67
2022/02/04 13:46:03;;;;;;;24.40;18.40;;;;;;;5.24;84.41;98862.99;441477;1253;141046;-62
2022/02/04 13:56:16;;;;;;;23.60;16.80;;;;;;;5.11;84.46;98860.04;442539;1253;140545;-73
2022/02/04 14:06:27;;;;;;;26.60;19.80;;;;;;;5.07;84.59;98851.08;442511;1252;141177;-61
2022/02/04 14:16:31;;;;;;;26.10;17.80;;;;;;;4.97;84.52;98843.57;452619;1253;142128;-61
2022/02/04 14:26:38;;;;;;;26.70;18.80;;;;;;;4.88;84.59;98842.80;442691;1252;141119;-63
2022/02/04 14:37:02;;;;;;;24.70;20.10;;;;;;;4.82;84.61;98834.52;439396;1252;142262;-61
2022/02/04 15:07:52;;;;;;;26.00;19.90;;;;;;;4.47;85.28;98820.82;449341;1252;143212;-62
2022/02/04 15:17:55;;;;;;;28.30;21.30;;;;;;;4.41;85.29;98818.73;451902;1252;142961;-61
2022/02/04 15:28:14;;;;;;;29.50;22.70;;;;;;;4.32;85.47;98811.89;450030;1254;140788;-62
2022/02/04 15:38:17;;;;;;;26.90;20.90;;;;;;;4.19;85.48;98813.38;446688;1253;141283;-62
2022/02/04 15:48:35;;;;;;;39.40;24.70;;;;;;;4.04;85.69;98809.48;436970;1255;142107;-61
2022/02/04 15:58:59;;;;;;;33.70;23.20;;;;;;;3.90;86.16;98800.08;441697;1253;140699;-70
2022/02/04 16:09:03;;;;;;;33.40;23.80;;;;;;;3.84;86.44;98799.16;447051;1253;141843;-71
2022/02/04 16:19:10;;;;;;;29.70;21.60;;;;;;;3.85;86.70;98797.57;452696;1253;141032;-72
2022/02/04 16:29:13;;;;;;;31.90;20.90;;;;;;;3.88;86.68;98794.14;452706;1252;141418;-72
2022/02/04 16:39:18;;;;;;;29.60;20.40;;;;;;;3.92;86.77;98789.63;441663;1253;141020;-72
2022/02/04 16:49:22;;;;;;;31.10;23.70;;;;;;;3.90;86.91;98791.11;440930;1252;141445;-63
2022/02/04 16:59:30;;;;;;;34.60;23.20;;;;;;;3.77;86.87;98775.95;439465;1250;140974;-65
2022/02/04 17:09:36;;;;;;;35.00;23.20;;;;;;;3.68;86.96;98765.86;446912;1253;141227;-66
2022/02/04 17:19:47;;;;;;;29.00;20.90;;;;;;;3.66;87.21;98764.21;437869;1253;141039;-80
2022/02/04 17:29:51;;;;;;;30.70;19.90;;;;;;;3.63;87.37;98746.20;441006;1253;142129;-71
2022/02/04 17:39:55;;;;;;;27.00;19.40;;;;;;;3.55;87.21;98736.36;438769;1253;141362;-63
2022/02/04 17:50:02;;;;;;;38.30;21.90;;;;;;;3.46;87.28;98738.68;438140;1253;142029;-67
2022/02/04 18:10:37;;;;;;;27.50;19.40;;;;;;;3.35;87.32;98739.39;440536;1252;141732;-70
2022/02/04 18:20:40;;;;;;;32.80;22.30;;;;;;;3.33;87.20;98734.66;446070;1252;141498;-71
2022/02/04 18:30:43;;;;;;;28.60;19.90;;;;;;;3.30;87.35;98733.41;444049;1253;141546;-70
2022/02/04 18:41:10;;;;;;;27.40;19.60;;;;;;;3.28;87.54;98732.98;445916;1253;153157;-77
2022/02/04 18:51:26;;;;;;;27.50;18.10;;;;;;;3.25;87.27;98724.65;452086;1252;142233;-67
2022/02/04 19:01:29;;;;;;;26.50;18.90;;;;;;;3.25;87.07;98720.30;450087;1252;141326;-67
2022/02/04 19:11:36;;;;;;;26.10;18.00;;;;;;;3.24;87.19;98711.55;442245;1252;141187;-67
2022/02/04 19:21:46;;;;;;;27.80;20.90;;;;;;;3.22;87.10;98710.77;438974;1253;141067;-67
2022/02/04 19:31:52;;;;;;;31.30;19.40;;;;;;;3.20;86.94;98710.02;441195;1253;140935;-67
2022/02/04 19:42:02;;;;;;;26.80;18.90;;;;;;;3.16;86.94;98701.35;443434;1252;142051;-67
2022/02/04 19:52:16;;;;;;;27.50;18.30;;;;;;;3.17;86.94;98692.67;452453;1253;141266;-68
2022/02/04 20:33:20;;;;;;;24.40;17.10;;;;;;;3.18;86.01;98651.29;445050;1252;141313;-60
2022/02/04 20:43:24;;;;;;;26.10;17.50;;;;;;;3.19;86.12;98646.56;451085;1252;141490;-60
2022/02/04 20:53:27;;;;;;;35.10;20.90;;;;;;;3.21;85.93;98629.36;447762;1252;141961;-61
2022/02/04 21:03:35;;;;;;;25.70;18.30;;;;;;;3.22;85.58;98632.94;438199;1253;141917;-59
2022/02/04 21:13:47;;;;;;;25.80;17.20;;;;;;;3.20;85.44;98617.84;445693;1252;141697;-59
2022/02/04 21:23:53;;;;;;;23.20;16.30;;;;;;;3.20;85.27;98609.36;450753;1252;141695;-60
2022/02/04 21:34:13;;;;;;;22.20;16.80;;;;;;;3.20;84.84;98592.55;450805;1251;141356;-59
2022/02/04 21:44:16;;;;;;;22.00;16.10;;;;;;;3.22;84.68;98589.36;453453;1252;141822;-66
2022/02/04 21:54:19;;;;;;;22.60;16.20;;;;;;;3.22;84.61;98576.34;452529;1251;142118;-66
2022/02/04 22:04:22;;;;;;;18.70;14.50;;;;;;;3.23;84.06;98566.80;438471;1253;141907;-65
2022/02/04 22:14:26;;;;;;;21.90;14.40;;;;;;;3.22;84.11;98551.98;438074;1253;141763;-64
2022/02/04 22:24:29;;;;;;;22.70;14.90;;;;;;;3.19;84.00;98544.17;452221;1252;144151;-65
2022/02/04 22:34:44;;;;;;;19.80;13.60;;;;;;;3.20;83.89;98543.27;446263;1253;140857;-67
2022/02/04 23:05:31;;;;;;;18.30;12.70;;;;;;;3.22;83.31;98519.64;442331;1252;141745;-65
2022/02/04 23:15:39;;;;;;;20.70;14.50;;;;;;;3.23;83.26;98500.77;443156;1252;141449;-65
2022/02/04 23:25:45;;;;;;;;;;;;;;;3.21;83.21;98482.29;443272;1253;141143;-65
2022/02/04 23:46:34;;;;;;;19.60;14.30;;;;;;;3.16;83.19;98455.09;439593;1253;142355;-65
2022/02/04 23:56:37;;;;;;;17.70;12.70;;;;;;;3.13;82.99;98443.98;439769;1252;141863;-67
